createdAt,value
2023-03-29T00:03:07.630Z,14.78
2023-03-29T00:08:14.541Z,14.75
2023-03-29T00:13:17.209Z,14.74
2023-03-29T00:18:19.205Z,14.75
2023-03-29T00:23:22.683Z,14.73
2023-03-29T00:28:24.741Z,14.72
2023-03-29T00:33:27.497Z,14.71
2023-03-29T00:38:30.788Z,14.69
2023-03-29T00:44:14.680Z,14.69
2023-03-29T00:49:17.161Z,14.68
2023-03-29T00:54:22.863Z,14.68
2023-03-29T00:59:28.266Z,14.63
2023-03-29T01:05:26.157Z,14.61
2023-03-29T01:10:47.062Z,14.57
2023-03-29T01:15:49.307Z,14.53
2023-03-29T01:21:22.376Z,14.48
2023-03-29T01:26:43.787Z,14.42
2023-03-29T01:31:51.738Z,14.37
2023-03-29T01:37:04.450Z,14.32
2023-03-29T01:42:21.492Z,14.28
2023-03-29T01:47:33.129Z,14.24
2023-03-29T01:52:48.832Z,14.20
2023-03-29T01:57:54.819Z,14.16
2023-03-29T02:03:03.415Z,14.11
2023-03-29T02:08:09.357Z,14.03
2023-03-29T02:13:23.033Z,13.97
2023-03-29T02:18:26.037Z,13.91
2023-03-29T02:23:50.038Z,13.88
2023-03-29T02:28:57.608Z,13.87
2023-03-29T02:34:10.399Z,13.84
2023-03-29T02:39:15.907Z,13.84
2023-03-29T02:44:24.732Z,13.81
2023-03-29T02:49:28.342Z,13.82
2023-03-29T02:54:31.659Z,13.81
2023-03-29T02:59:34.706Z,13.84
2023-03-29T03:04:37.682Z,13.88
2023-03-29T03:09:43.377Z,13.88
2023-03-29T03:14:45.757Z,13.93
2023-03-29T03:19:48.272Z,13.96
2023-03-29T03:24:51.331Z,13.99
2023-03-29T03:29:53.644Z,14.01
2023-03-29T03:35:34.972Z,14.02
2023-03-29T03:40:37.136Z,14.00
2023-03-29T03:45:50.079Z,13.95
2023-03-29T03:50:59.267Z,13.85
2023-03-29T03:56:09.270Z,13.76
2023-03-29T04:01:36.792Z,13.65
2023-03-29T04:11:28.393Z,13.49
2023-03-29T04:16:37.215Z,13.42
2023-03-29T04:22:05.638Z,13.31
2023-03-29T04:27:18.574Z,13.23
2023-03-29T04:32:27.670Z,13.16
2023-03-29T04:37:45.443Z,13.07
2023-03-29T04:48:19.797Z,12.92
2023-03-29T04:53:34.020Z,12.83
2023-03-29T04:58:38.852Z,12.79
2023-03-29T05:03:46.156Z,12.74
2023-03-29T05:08:57.057Z,12.70
2023-03-29T05:14:36.636Z,12.67
2023-03-29T05:19:46.622Z,12.66
2023-03-29T05:25:00.334Z,12.61
2023-03-29T05:30:18.683Z,12.60
2023-03-29T05:35:49.270Z,12.53
2023-03-29T05:40:53.586Z,12.51
2023-03-29T05:46:24.624Z,12.49
2023-03-29T05:51:35.433Z,12.43
2023-03-29T05:56:41.302Z,12.41
2023-03-29T06:01:48.871Z,12.42
2023-03-29T06:06:59.832Z,12.46
2023-03-29T06:12:04.421Z,12.47
2023-03-29T06:17:29.950Z,12.48
2023-03-29T06:22:35.906Z,12.50
2023-03-29T06:27:52.472Z,12.53
2023-03-29T06:38:23.228Z,12.67
2023-03-29T06:43:41.135Z,12.75
2023-03-29T06:49:03.745Z,12.83
2023-03-29T06:54:21.989Z,12.93
2023-03-29T06:59:40.142Z,13.04
2023-03-29T07:05:11.709Z,13.16
2023-03-29T07:10:36.922Z,13.30
2023-03-29T07:16:01.052Z,13.77
2023-03-29T07:21:26.680Z,14.48
2023-03-29T07:26:35.974Z,15.12
2023-03-29T07:31:42.424Z,15.68
2023-03-29T07:37:09.099Z,16.17
2023-03-29T07:42:21.144Z,16.56
2023-03-29T07:47:30.915Z,16.92
2023-03-29T07:57:56.297Z,17.72
2023-03-29T08:03:02.677Z,17.97
2023-03-29T08:08:15.705Z,18.09
2023-03-29T08:13:31.720Z,18.28
2023-03-29T08:19:07.539Z,18.46
2023-03-29T08:24:42.800Z,18.68
2023-03-29T08:29:51.840Z,18.76
2023-03-29T08:34:56.445Z,18.83
2023-03-29T08:40:11.342Z,18.80
2023-03-29T08:46:00.752Z,18.81
2023-03-29T08:51:24.947Z,18.89
2023-03-29T08:56:34.457Z,18.99
2023-03-29T09:02:22.433Z,19.02
2023-03-29T09:07:39.219Z,19.09
2023-03-29T09:13:19.806Z,19.24
2023-03-29T09:18:48.660Z,19.41
2023-03-29T09:24:22.692Z,19.37
2023-03-29T09:29:58.558Z,19.08
2023-03-29T09:35:36.713Z,18.95
2023-03-29T09:40:58.438Z,18.89
2023-03-29T09:46:19.922Z,19.00
2023-03-29T09:51:36.346Z,19.03
2023-03-29T09:56:43.745Z,18.98
2023-03-29T10:02:09.497Z,19.03
2023-03-29T10:07:23.687Z,18.95
2023-03-29T10:12:41.699Z,19.07
2023-03-29T10:17:51.132Z,19.18
2023-03-29T10:23:00.325Z,19.23
2023-03-29T10:28:12.861Z,19.30
2023-03-29T10:33:25.931Z,19.26
2023-03-29T10:38:32.943Z,19.26
2023-03-29T10:43:52.890Z,19.23
2023-03-29T10:49:10.648Z,19.19
2023-03-29T10:54:23.539Z,19.02
2023-03-29T10:59:30.045Z,18.97
2023-03-29T11:05:17.856Z,18.90
2023-03-29T11:10:41.798Z,19.00
2023-03-29T11:16:13.913Z,18.93
2023-03-29T11:21:43.116Z,18.87
2023-03-29T11:32:40.642Z,18.90
2023-03-29T11:38:22.073Z,18.64
2023-03-29T11:44:06.324Z,18.85
2023-03-29T11:49:40.533Z,18.85
2023-03-29T11:55:17.414Z,18.74
2023-03-29T12:00:31.757Z,18.70
2023-03-29T12:17:21.925Z,18.94
2023-03-29T12:22:36.141Z,18.86
2023-03-29T12:28:02.106Z,18.83
2023-03-29T12:33:20.174Z,18.96
2023-03-29T12:38:32.713Z,18.85
2023-03-29T12:43:53.599Z,18.73
2023-03-29T12:48:58.374Z,18.66
2023-03-29T12:54:10.279Z,18.46
2023-03-29T12:59:27.952Z,18.32
2023-03-29T13:04:51.568Z,18.29
2023-03-29T13:10:29.541Z,18.21
2023-03-29T13:15:35.936Z,18.05
2023-03-29T13:20:46.195Z,17.90
2023-03-29T13:25:48.455Z,17.92
2023-03-29T13:30:59.625Z,18.10
2023-03-29T13:36:37.671Z,17.98
2023-03-29T13:41:54.650Z,17.92
2023-03-29T13:47:39.447Z,17.94
2023-03-29T13:53:00.886Z,17.93
2023-03-29T13:58:32.076Z,17.95
2023-03-29T14:09:08.724Z,17.98
2023-03-29T14:14:11.484Z,17.99
2023-03-29T14:19:23.897Z,17.94
2023-03-29T14:24:28.752Z,17.92
2023-03-29T14:29:35.157Z,17.85
2023-03-29T14:34:45.164Z,17.80
2023-03-29T14:39:49.494Z,17.79
2023-03-29T14:44:57.164Z,17.79
2023-03-29T14:50:01.757Z,17.66
2023-03-29T14:55:04.985Z,17.64
2023-03-29T15:00:19.952Z,17.63
2023-03-29T15:05:44.218Z,17.57
2023-03-29T15:10:56.210Z,17.58
2023-03-29T15:16:07.519Z,17.53
2023-03-29T15:21:14.888Z,17.46
2023-03-29T15:26:37.767Z,17.51
2023-03-29T15:31:41.962Z,17.54
2023-03-29T15:36:50.534Z,17.48
2023-03-29T15:41:59.293Z,17.35
2023-03-29T15:52:25.226Z,17.28
2023-03-29T15:57:34.543Z,17.25
2023-03-29T16:02:45.976Z,17.33
2023-03-29T16:07:50.248Z,17.37
2023-03-29T16:13:02.198Z,17.40
2023-03-29T16:18:07.541Z,17.37
2023-03-29T16:23:22.267Z,17.34
2023-03-29T16:28:30.418Z,17.30
2023-03-29T16:33:33.756Z,17.23
2023-03-29T16:38:35.981Z,17.14
2023-03-29T16:43:38.753Z,17.10
2023-03-29T16:48:40.952Z,17.06
2023-03-29T16:53:43.493Z,17.02
2023-03-29T16:58:45.880Z,16.94
2023-03-29T17:03:51.175Z,16.81
2023-03-29T17:08:53.847Z,16.68
2023-03-29T17:13:56.308Z,16.50
2023-03-29T17:19:01.380Z,16.37
2023-03-29T17:24:06.447Z,16.31
2023-03-29T17:29:08.796Z,16.20
2023-03-29T17:34:13.211Z,16.14
2023-03-29T17:39:18.815Z,16.08
2023-03-29T17:44:21.107Z,16.00
2023-03-29T17:49:23.268Z,15.92
2023-03-29T17:54:25.391Z,15.84
2023-03-29T17:59:37.466Z,15.78
2023-03-29T18:04:46.540Z,15.74
2023-03-29T18:09:57.936Z,15.71
2023-03-29T18:15:20.167Z,15.64
2023-03-29T18:20:26.223Z,15.64
2023-03-29T18:25:29.549Z,15.61
2023-03-29T18:30:31.744Z,15.58
2023-03-29T18:35:34.643Z,15.54
2023-03-29T18:40:39.173Z,15.49
2023-03-29T18:45:43.061Z,15.47
2023-03-29T18:50:46.596Z,15.47
2023-03-29T18:55:53.004Z,15.44
2023-03-29T19:01:09.688Z,15.40
2023-03-29T19:06:15.758Z,15.33
2023-03-29T19:11:21.437Z,15.32
2023-03-29T19:16:23.761Z,15.30
2023-03-29T19:21:27.888Z,15.30
2023-03-29T19:26:30.704Z,15.28
2023-03-29T19:31:33.575Z,15.25
2023-03-29T19:36:35.934Z,15.24
2023-03-29T19:41:39.996Z,15.25
2023-03-29T19:46:44.283Z,15.25
2023-03-29T19:51:48.009Z,15.27
2023-03-29T19:56:52.731Z,15.24
2023-03-29T20:02:02.775Z,15.24
2023-03-29T20:07:05.354Z,15.18
2023-03-29T20:12:07.531Z,15.13
2023-03-29T20:17:11.830Z,15.09
2023-03-29T20:22:21.813Z,15.05
2023-03-29T20:27:25.616Z,15.06
2023-03-29T20:32:28.150Z,15.05
2023-03-29T20:37:30.375Z,15.02
2023-03-29T20:42:34.620Z,15.03
2023-03-29T20:47:42.584Z,15.02
2023-03-29T20:52:45.195Z,15.00
2023-03-29T20:57:54.316Z,15.01
2023-03-29T21:03:10.128Z,14.98
2023-03-29T21:08:19.001Z,14.97
2023-03-29T21:13:23.014Z,14.96
2023-03-29T21:18:28.635Z,14.95
2023-03-29T21:23:55.498Z,14.94
2023-03-29T21:29:02.685Z,14.95
2023-03-29T21:34:25.632Z,14.92
2023-03-29T21:39:32.740Z,14.91
2023-03-29T21:49:59.085Z,14.84
2023-03-29T21:55:12.237Z,14.84
2023-03-29T22:00:29.867Z,14.84
2023-03-29T22:05:36.764Z,14.84
2023-03-29T22:10:41.689Z,14.83
2023-03-29T22:21:16.440Z,14.86
2023-03-29T22:26:32.011Z,14.85
2023-03-29T22:37:07.812Z,14.83
2023-03-29T22:42:22.788Z,14.87
2023-03-29T22:47:37.110Z,14.88
2023-03-29T22:52:43.366Z,14.90
2023-03-29T22:57:49.443Z,14.91
2023-03-29T23:03:02.991Z,14.91
2023-03-29T23:08:16.106Z,14.90
2023-03-29T23:13:37.745Z,14.88
2023-03-29T23:18:42.010Z,14.91
2023-03-29T23:23:51.460Z,14.91
2023-03-29T23:29:03.326Z,14.90
2023-03-29T23:34:08.279Z,14.87
2023-03-29T23:39:22.498Z,14.87
2023-03-29T23:44:37.410Z,14.86
2023-03-29T23:55:07.365Z,14.85
